createdAt,value
2022-10-11T00:01:38.703Z,96.40
2022-10-11T00:04:06.320Z,96.64
2022-10-11T00:06:32.733Z,96.64
2022-10-11T00:08:59.124Z,96.55
2022-10-11T00:11:25.666Z,96.40
2022-10-11T00:13:52.057Z,96.04
2022-10-11T00:16:18.441Z,96.23
2022-10-11T00:18:44.804Z,96.18
2022-10-11T00:21:14.134Z,96.30
2022-10-11T00:23:41.656Z,95.99
2022-10-11T00:26:10.203Z,96.09
2022-10-11T00:28:37.019Z,96.47
2022-10-11T00:31:07.999Z,96.62
2022-10-11T00:33:34.667Z,96.73
2022-10-11T00:36:01.164Z,96.06
2022-10-11T00:38:28.013Z,95.68
2022-10-11T00:40:54.452Z,95.80
2022-10-11T00:43:24.014Z,95.88
2022-10-11T00:45:56.238Z,96.00
2022-10-11T00:48:43.836Z,96.17
2022-10-11T00:51:37.576Z,96.11
2022-10-11T00:54:05.894Z,96.17
2022-10-11T00:56:38.880Z,96.49
2022-10-11T00:59:11.027Z,96.50
2022-10-11T01:01:37.873Z,96.78
2022-10-11T01:04:04.815Z,96.50
2022-10-11T01:06:31.232Z,96.07
2022-10-11T01:08:57.740Z,96.36
2022-10-11T01:11:27.252Z,96.65
2022-10-11T01:14:09.605Z,96.78
2022-10-11T01:16:51.735Z,96.77
2022-10-11T01:19:52.440Z,96.72
2022-10-11T01:22:21.512Z,97.00
2022-10-11T01:24:56.973Z,96.93
2022-10-11T01:28:09.923Z,96.69
2022-10-11T01:30:37.900Z,96.25
2022-10-11T01:33:32.311Z,96.22
2022-10-11T01:36:22.238Z,96.38
2022-10-11T01:38:56.389Z,96.27
2022-10-11T01:41:30.857Z,96.41
2022-10-11T01:44:02.895Z,96.16
2022-10-11T01:46:31.103Z,96.40
2022-10-11T01:49:01.192Z,96.51
2022-10-11T01:51:31.504Z,96.75
2022-10-11T01:54:16.710Z,96.48
2022-10-11T01:56:58.312Z,97.16
2022-10-11T01:59:51.739Z,96.68
2022-10-11T02:02:18.089Z,96.64
2022-10-11T02:04:55.503Z,96.68
2022-10-11T02:07:23.726Z,96.89
2022-10-11T02:09:56.045Z,96.95
2022-10-11T02:12:32.311Z,96.48
2022-10-11T02:15:03.366Z,96.66
2022-10-11T02:17:36.185Z,96.73
2022-10-11T02:20:10.120Z,96.71
2022-10-11T02:22:40.560Z,96.72
2022-10-11T02:25:12.187Z,96.90
2022-10-11T02:27:43.306Z,96.79
2022-10-11T02:30:10.866Z,96.85
2022-10-11T02:32:41.165Z,96.95
2022-10-11T02:35:08.497Z,96.95
2022-10-11T02:38:05.443Z,96.74
2022-10-11T02:40:42.809Z,96.74
2022-10-11T02:43:17.515Z,96.64
2022-10-11T02:45:57.694Z,96.74
2022-10-11T02:48:25.173Z,96.91
2022-10-11T02:50:53.740Z,96.67
2022-10-11T02:53:21.074Z,96.72
2022-10-11T02:55:49.724Z,96.72
2022-10-11T02:58:16.155Z,96.70
2022-10-11T03:00:42.888Z,96.89
2022-10-11T03:03:09.266Z,96.82
2022-10-11T03:05:40.547Z,97.04
2022-10-11T03:08:11.564Z,96.82
2022-10-11T03:10:39.137Z,96.72
2022-10-11T03:13:05.527Z,96.81
2022-10-11T03:15:32.817Z,96.93
2022-10-11T03:17:59.675Z,97.12
2022-10-11T03:20:26.512Z,97.20
2022-10-11T03:22:52.926Z,97.32
2022-10-11T03:25:19.359Z,97.44
2022-10-11T03:27:45.764Z,97.34
2022-10-11T03:30:17.325Z,97.40
2022-10-11T03:32:44.557Z,97.46
2022-10-11T03:35:10.941Z,97.19
2022-10-11T03:37:37.467Z,97.31
2022-10-11T03:40:08.701Z,97.22
2022-10-11T03:42:36.025Z,97.43
2022-10-11T03:45:07.891Z,97.03
2022-10-11T03:47:35.101Z,97.21
2022-10-11T03:50:01.968Z,97.29
2022-10-11T03:52:28.728Z,97.11
2022-10-11T03:54:55.749Z,97.20
2022-10-11T03:57:22.163Z,97.19
2022-10-11T03:59:48.594Z,97.48
2022-10-11T04:02:15.560Z,97.29
2022-10-11T04:04:42.235Z,97.29
2022-10-11T04:07:08.930Z,97.45
2022-10-11T04:09:35.425Z,97.34
2022-10-11T04:12:01.847Z,97.15
2022-10-11T04:14:28.338Z,97.47
2022-10-11T04:16:58.361Z,97.37
2022-10-11T04:19:26.575Z,97.39
2022-10-11T04:21:53.104Z,97.38
2022-10-11T04:24:19.630Z,97.79
2022-10-11T04:26:46.023Z,97.60
2022-10-11T04:29:12.392Z,97.48
2022-10-11T04:31:38.796Z,97.75
2022-10-11T04:34:05.212Z,97.69
2022-10-11T04:36:33.804Z,97.04
2022-10-11T04:39:01.562Z,97.26
2022-10-11T04:41:29.048Z,97.66
2022-10-11T04:43:55.862Z,97.66
2022-10-11T04:46:22.295Z,97.63
2022-10-11T04:48:48.688Z,97.77
2022-10-11T04:51:15.078Z,97.48
2022-10-11T04:53:41.565Z,97.63
2022-10-11T04:56:11.565Z,97.68
2022-10-11T04:58:40.987Z,97.75
2022-10-11T05:01:08.753Z,97.71
2022-10-11T05:03:35.763Z,97.94
2022-10-11T05:06:05.623Z,98.08
2022-10-11T05:08:33.121Z,98.20
2022-10-11T05:11:05.105Z,98.21
2022-10-11T05:13:32.408Z,98.29
2022-10-11T05:15:59.152Z,98.31
2022-10-11T05:18:25.840Z,98.30
2022-10-11T05:21:03.708Z,98.39
2022-10-11T05:23:32.320Z,98.59
2022-10-11T05:25:59.344Z,98.55
2022-10-11T05:28:26.440Z,98.75
2022-10-11T05:30:53.453Z,98.82
2022-10-11T05:33:20.139Z,98.86
2022-10-11T05:35:46.624Z,98.69
2022-10-11T05:38:13.059Z,98.89
2022-10-11T05:40:39.744Z,98.85
2022-10-11T05:43:06.598Z,98.75
2022-10-11T05:45:35.834Z,98.88
2022-10-11T05:48:02.256Z,98.61
2022-10-11T05:50:28.770Z,98.67
2022-10-11T05:52:55.930Z,98.89
2022-10-11T05:55:22.326Z,98.71
2022-10-11T05:57:51.481Z,98.81
2022-10-11T06:00:17.963Z,98.66
2022-10-11T06:02:44.329Z,98.67
2022-10-11T06:05:10.726Z,98.78
2022-10-11T06:07:37.594Z,98.90
2022-10-11T06:10:05.303Z,98.85
2022-10-11T06:12:31.773Z,98.89
2022-10-11T06:14:58.176Z,98.72
2022-10-11T06:17:24.751Z,98.76
2022-10-11T06:19:51.359Z,98.99
2022-10-11T06:22:18.546Z,98.98
2022-10-11T06:24:44.935Z,98.99
2022-10-11T06:27:12.561Z,99.14
2022-10-11T06:29:38.927Z,98.98
2022-10-11T06:32:06.504Z,99.13
2022-10-11T06:34:32.856Z,98.82
2022-10-11T06:36:59.211Z,99.12
2022-10-11T06:39:25.698Z,99.01
2022-10-11T06:41:52.171Z,99.09
2022-10-11T06:44:18.540Z,99.16
2022-10-11T06:46:44.922Z,99.40
2022-10-11T06:49:11.309Z,99.20
2022-10-11T06:51:37.696Z,99.54
2022-10-11T06:54:05.193Z,99.48
2022-10-11T06:56:31.849Z,99.50
2022-10-11T06:58:59.414Z,99.48
2022-10-11T07:01:27.485Z,99.29
2022-10-11T07:03:57.543Z,99.57
2022-10-11T07:06:27.082Z,99.71
2022-10-11T07:08:54.042Z,99.91
2022-10-11T07:11:26.317Z,100.00
2022-10-11T07:13:55.310Z,100.00
2022-10-11T07:16:22.403Z,100.00
2022-10-11T07:18:57.254Z,100.00
2022-10-11T07:21:27.144Z,100.00
2022-10-11T07:23:53.574Z,100.00
2022-10-11T07:26:19.987Z,100.00
2022-10-11T07:28:47.235Z,100.00
2022-10-11T07:31:17.257Z,100.00
2022-10-11T07:33:43.664Z,100.00
2022-10-11T07:36:11.528Z,100.00
2022-10-11T07:38:46.188Z,100.00
2022-10-11T07:41:13.559Z,100.00
2022-10-11T07:43:40.289Z,100.00
2022-10-11T07:46:08.065Z,100.00
2022-10-11T07:48:35.881Z,100.00
2022-10-11T07:51:17.762Z,100.00
2022-10-11T07:53:50.194Z,100.00
2022-10-11T07:56:19.434Z,100.00
2022-10-11T07:58:51.279Z,100.00
2022-10-11T08:01:17.801Z,100.00
2022-10-11T08:03:44.307Z,100.00
2022-10-11T08:06:13.355Z,100.00
2022-10-11T08:08:39.795Z,100.00
2022-10-11T08:11:06.500Z,100.00
2022-10-11T08:13:33.004Z,100.00
2022-10-11T08:15:59.898Z,100.00
2022-10-11T08:18:26.436Z,100.00
2022-10-11T08:20:52.858Z,100.00
2022-10-11T08:23:19.752Z,99.87
2022-10-11T08:25:47.465Z,99.77
2022-10-11T08:28:17.958Z,99.44
2022-10-11T08:30:52.690Z,99.34
2022-10-11T08:33:24.316Z,98.87
2022-10-11T08:35:52.222Z,98.14
2022-10-11T08:38:19.641Z,97.51
2022-10-11T08:40:52.013Z,97.35
2022-10-11T08:43:59.916Z,97.39
2022-10-11T08:46:31.913Z,97.12
2022-10-11T08:49:01.311Z,96.73
2022-10-11T08:51:33.731Z,96.61
2022-10-11T08:54:12.340Z,95.68
2022-10-11T08:56:40.170Z,95.21
2022-10-11T08:59:20.876Z,94.61
2022-10-11T09:01:54.374Z,94.81
2022-10-11T09:04:20.791Z,92.56
2022-10-11T09:07:06.700Z,93.03
2022-10-11T09:09:55.957Z,92.16
2022-10-11T09:12:55.535Z,90.65
2022-10-11T09:15:55.643Z,89.66
2022-10-11T09:18:53.656Z,89.07
2022-10-11T09:21:45.643Z,87.39
2022-10-11T09:24:38.416Z,85.97
2022-10-11T09:27:32.998Z,85.33
2022-10-11T09:30:09.343Z,82.79
2022-10-11T09:32:39.434Z,81.79
2022-10-11T09:35:18.395Z,82.15
2022-10-11T09:38:12.648Z,81.28
2022-10-11T09:41:09.242Z,81.30
2022-10-11T09:43:35.711Z,80.42
2022-10-11T09:46:02.341Z,79.66
2022-10-11T09:48:38.657Z,79.13
2022-10-11T09:51:08.083Z,78.83
2022-10-11T09:53:53.079Z,77.45
2022-10-11T09:56:20.287Z,76.49
2022-10-11T09:58:46.971Z,77.30
2022-10-11T10:01:24.122Z,75.54
2022-10-11T10:04:16.959Z,74.74
2022-10-11T10:06:43.392Z,74.00
2022-10-11T10:09:20.479Z,74.55
2022-10-11T10:11:47.342Z,74.07
2022-10-11T10:14:23.897Z,73.44
2022-10-11T10:16:59.529Z,72.86
2022-10-11T10:19:26.176Z,73.10
2022-10-11T10:21:55.037Z,72.93
2022-10-11T10:24:33.630Z,73.04
2022-10-11T10:27:07.671Z,71.09
2022-10-11T10:29:34.147Z,71.63
2022-10-11T10:32:14.356Z,70.84
2022-10-11T10:35:13.615Z,71.52
2022-10-11T10:37:52.917Z,71.58
2022-10-11T10:40:35.870Z,68.75
2022-10-11T10:43:02.276Z,67.94
2022-10-11T10:45:41.709Z,70.07
2022-10-11T10:48:17.232Z,69.89
2022-10-11T10:50:56.639Z,70.77
2022-10-11T10:53:35.147Z,70.20
2022-10-11T10:56:12.091Z,68.75
2022-10-11T10:59:11.941Z,69.21
2022-10-11T11:01:52.772Z,67.06
2022-10-11T11:04:33.955Z,69.35
2022-10-11T11:07:30.184Z,69.22
2022-10-11T11:10:07.166Z,69.08
2022-10-11T11:12:56.700Z,68.13
2022-10-11T11:15:42.765Z,66.30
2022-10-11T11:18:28.413Z,66.56
2022-10-11T11:21:11.944Z,64.42
2022-10-11T11:23:53.295Z,65.02
2022-10-11T11:26:28.555Z,64.25
2022-10-11T11:29:18.232Z,66.10
2022-10-11T11:32:18.610Z,66.13
2022-10-11T11:34:54.343Z,64.97
2022-10-11T11:37:34.368Z,66.08
2022-10-11T11:40:07.473Z,66.49
2022-10-11T11:42:44.258Z,65.08
2022-10-11T11:45:19.766Z,64.36
2022-10-11T11:47:55.465Z,64.80
2022-10-11T11:50:27.917Z,62.85
2022-10-11T11:53:00.571Z,62.84
2022-10-11T11:55:59.044Z,64.36
2022-10-11T11:58:31.318Z,63.72
2022-10-11T12:01:15.626Z,62.50
2022-10-11T12:03:48.967Z,63.14
2022-10-11T12:06:19.975Z,62.13
2022-10-11T12:08:49.246Z,60.33
2022-10-11T12:11:45.145Z,62.38
2022-10-11T12:14:40.937Z,63.43
2022-10-11T12:17:16.280Z,64.31
2022-10-11T12:20:24.206Z,63.83
2022-10-11T12:22:54.834Z,63.77
2022-10-11T12:25:27.207Z,63.01
2022-10-11T12:27:58.498Z,62.24
2022-10-11T12:30:55.584Z,62.91
2022-10-11T12:33:33.201Z,62.44
2022-10-11T12:36:22.206Z,61.75
2022-10-11T12:39:20.352Z,62.96
2022-10-11T12:41:55.479Z,61.00
2022-10-11T12:44:27.314Z,61.08
2022-10-11T12:46:53.675Z,62.39
2022-10-11T12:49:24.544Z,63.73
2022-10-11T12:52:24.127Z,63.02
2022-10-11T12:55:00.381Z,63.49
2022-10-11T12:58:06.015Z,64.07
2022-10-11T13:01:03.625Z,63.66
2022-10-11T13:03:32.786Z,61.84
2022-10-11T13:06:04.673Z,61.85
2022-10-11T13:08:33.640Z,63.09
2022-10-11T13:11:07.917Z,60.03
2022-10-11T13:13:42.802Z,61.30
2022-10-11T13:16:13.921Z,62.02
2022-10-11T13:18:46.384Z,59.00
2022-10-11T13:21:22.991Z,59.96
2022-10-11T13:23:57.626Z,60.69
2022-10-11T13:26:26.341Z,61.60
2022-10-11T13:28:52.891Z,61.83
2022-10-11T13:31:19.584Z,59.32
2022-10-11T13:33:46.472Z,61.10
2022-10-11T13:36:20.549Z,60.61
2022-10-11T13:38:59.572Z,60.51
2022-10-11T13:41:29.284Z,59.89
2022-10-11T13:43:57.783Z,61.08
2022-10-11T13:46:26.696Z,60.89
2022-10-11T13:49:04.455Z,60.49
2022-10-11T13:51:32.119Z,59.81
2022-10-11T13:54:10.583Z,59.86
2022-10-11T13:56:47.723Z,60.03
2022-10-11T13:59:25.503Z,61.80
2022-10-11T14:02:00.421Z,61.13
2022-10-11T14:04:29.985Z,59.78
2022-10-11T14:07:02.485Z,58.31
2022-10-11T14:09:32.229Z,57.71
2022-10-11T14:12:43.115Z,58.87
2022-10-11T14:15:34.443Z,58.33
2022-10-11T14:18:02.680Z,57.42
2022-10-11T14:20:38.567Z,58.11
2022-10-11T14:23:06.232Z,59.17
2022-10-11T14:25:33.691Z,57.47
2022-10-11T14:28:01.090Z,58.58
2022-10-11T14:30:31.271Z,59.08
2022-10-11T14:33:00.661Z,58.81
2022-10-11T14:35:31.001Z,57.87
2022-10-11T14:37:57.658Z,57.84
2022-10-11T14:40:27.430Z,57.78
2022-10-11T14:42:54.041Z,58.38
2022-10-11T14:45:23.338Z,58.05
2022-10-11T14:47:49.903Z,57.88
2022-10-11T14:50:27.302Z,58.25
2022-10-11T14:52:54.781Z,58.44
2022-10-11T14:55:21.530Z,58.94
2022-10-11T14:57:48.036Z,59.29
2022-10-11T15:00:28.339Z,60.51
2022-10-11T15:02:55.829Z,60.39
2022-10-11T15:05:24.257Z,60.92
2022-10-11T15:07:51.399Z,61.34
2022-10-11T15:10:28.096Z,61.84
2022-10-11T15:12:56.253Z,62.29
2022-10-11T15:15:25.552Z,62.43
2022-10-11T15:17:56.944Z,63.12
2022-10-11T15:20:31.992Z,63.43
2022-10-11T15:22:59.465Z,65.00
2022-10-11T15:25:27.204Z,65.59
2022-10-11T15:27:53.787Z,65.24
2022-10-11T15:30:30.316Z,65.30
2022-10-11T15:32:57.063Z,65.92
2022-10-11T15:35:24.790Z,66.02
2022-10-11T15:37:57.830Z,67.28
2022-10-11T15:40:35.993Z,66.81
2022-10-11T15:43:03.172Z,66.67
2022-10-11T15:45:30.458Z,66.41
2022-10-11T15:47:57.236Z,67.19
2022-10-11T15:50:37.316Z,67.16
2022-10-11T15:53:06.459Z,67.88
2022-10-11T15:55:35.324Z,67.78
2022-10-11T15:58:01.962Z,68.27
2022-10-11T16:00:29.695Z,68.87
2022-10-11T16:02:57.930Z,69.24
2022-10-11T16:05:26.830Z,70.13
2022-10-11T16:07:54.180Z,70.56
2022-10-11T16:10:21.191Z,70.97
2022-10-11T16:12:48.024Z,71.70
2022-10-11T16:15:15.092Z,72.48
2022-10-11T16:17:41.562Z,73.71
2022-10-11T16:20:08.560Z,74.96
2022-10-11T16:22:35.614Z,75.58
2022-10-11T16:25:02.375Z,76.41
2022-10-11T16:27:29.197Z,76.38
2022-10-11T16:29:55.847Z,76.96
2022-10-11T16:32:23.112Z,77.50
2022-10-11T16:34:49.828Z,77.73
2022-10-11T16:37:16.617Z,78.72
2022-10-11T16:39:43.312Z,80.42
2022-10-11T16:42:09.683Z,80.48
2022-10-11T16:44:38.459Z,80.36
2022-10-11T16:47:06.294Z,80.35
2022-10-11T16:49:33.260Z,80.64
2022-10-11T16:52:00.672Z,81.51
2022-10-11T16:54:27.489Z,81.51
2022-10-11T16:56:53.969Z,82.26
2022-10-11T16:59:20.704Z,82.42
2022-10-11T17:01:47.284Z,82.80
2022-10-11T17:04:14.664Z,83.17
2022-10-11T17:06:43.586Z,83.55
2022-10-11T17:09:10.143Z,83.28
2022-10-11T17:11:36.968Z,83.44
2022-10-11T17:14:05.748Z,83.76
2022-10-11T17:16:32.181Z,83.58
2022-10-11T17:18:58.579Z,84.19
2022-10-11T17:21:25.090Z,84.07
2022-10-11T17:23:51.650Z,84.05
2022-10-11T17:26:21.967Z,85.06
2022-10-11T17:28:48.472Z,85.19
2022-10-11T17:31:15.249Z,85.44
2022-10-11T17:33:41.711Z,85.59
2022-10-11T17:36:15.832Z,85.74
2022-10-11T17:38:42.489Z,85.85
2022-10-11T17:41:10.091Z,85.86
2022-10-11T17:43:36.503Z,85.61
2022-10-11T17:46:08.824Z,85.95
2022-10-11T17:48:36.799Z,85.76
2022-10-11T17:51:10.057Z,85.88
2022-10-11T17:53:37.439Z,86.53
2022-10-11T17:56:06.495Z,86.55
2022-10-11T17:58:32.963Z,86.58
2022-10-11T18:01:12.044Z,86.70
2022-10-11T18:03:39.572Z,87.29
2022-10-11T18:06:08.466Z,87.17
2022-10-11T18:08:40.241Z,87.46
2022-10-11T18:11:12.139Z,87.60
2022-10-11T18:13:42.070Z,87.64
2022-10-11T18:16:09.927Z,87.93
2022-10-11T18:18:36.662Z,87.71
2022-10-11T18:21:03.628Z,87.58
2022-10-11T18:23:30.821Z,87.32
2022-10-11T18:25:57.218Z,87.66
2022-10-11T18:28:23.643Z,88.10
2022-10-11T18:30:50.167Z,88.09
2022-10-11T18:33:17.413Z,88.87
2022-10-11T18:35:43.820Z,88.79
2022-10-11T18:38:10.299Z,88.52
2022-10-11T18:40:38.072Z,88.83
2022-10-11T18:43:04.887Z,88.48
2022-10-11T18:45:31.389Z,88.82
2022-10-11T18:47:57.776Z,89.17
2022-10-11T18:50:24.168Z,89.44
2022-10-11T18:52:50.553Z,89.68
2022-10-11T18:55:17.172Z,89.88
2022-10-11T18:57:43.580Z,89.65
2022-10-11T19:00:23.357Z,88.75
2022-10-11T19:02:57.179Z,89.58
2022-10-11T19:05:23.570Z,89.16
2022-10-11T19:07:49.969Z,88.66
2022-10-11T19:10:16.420Z,89.39
2022-10-11T19:12:42.809Z,89.16
2022-10-11T19:15:09.295Z,89.35
2022-10-11T19:17:35.683Z,89.14
2022-10-11T19:20:02.381Z,88.63
2022-10-11T19:22:28.776Z,89.17
2022-10-11T19:24:55.204Z,89.13
2022-10-11T19:27:21.646Z,89.09
2022-10-11T19:29:48.216Z,89.01
2022-10-11T19:32:14.648Z,89.65
2022-10-11T19:34:41.147Z,89.50
2022-10-11T19:37:07.689Z,89.41
2022-10-11T19:39:34.091Z,89.64
2022-10-11T19:42:01.184Z,90.14
2022-10-11T19:44:27.597Z,89.80
2022-10-11T19:46:54.039Z,90.07
2022-10-11T19:49:25.647Z,89.48
2022-10-11T19:51:53.676Z,89.45
2022-10-11T19:54:20.226Z,89.15
2022-10-11T19:56:46.847Z,88.90
2022-10-11T19:59:14.343Z,89.49
2022-10-11T20:01:41.661Z,89.72
2022-10-11T20:04:27.556Z,90.10
2022-10-11T20:06:57.530Z,90.04
2022-10-11T20:09:29.637Z,89.55
2022-10-11T20:11:56.573Z,89.54
2022-10-11T20:14:23.016Z,89.62
2022-10-11T20:16:50.399Z,89.86
2022-10-11T20:19:17.266Z,90.26
2022-10-11T20:21:43.947Z,89.23
2022-10-11T20:24:10.719Z,90.07
2022-10-11T20:26:37.346Z,90.09
2022-10-11T20:29:03.788Z,90.00
2022-10-11T20:31:33.208Z,89.99
2022-10-11T20:34:03.374Z,89.99
2022-10-11T20:36:31.279Z,90.15
2022-10-11T20:38:59.077Z,90.17
2022-10-11T20:41:34.242Z,90.00
2022-10-11T20:44:02.079Z,90.05
2022-10-11T20:46:32.204Z,90.24
2022-10-11T20:49:02.072Z,90.11
2022-10-11T20:51:33.902Z,89.94
2022-10-11T20:54:01.869Z,89.93
2022-10-11T20:56:29.616Z,90.02
2022-10-11T20:58:57.192Z,89.89
2022-10-11T21:01:26.459Z,89.90
2022-10-11T21:03:53.109Z,89.58
2022-10-11T21:06:19.687Z,89.87
2022-10-11T21:08:46.077Z,90.04
2022-10-11T21:11:12.502Z,90.32
2022-10-11T21:13:38.944Z,90.26
2022-10-11T21:16:07.757Z,90.56
2022-10-11T21:18:34.235Z,90.51
2022-10-11T21:21:06.323Z,90.52
2022-10-11T21:23:32.793Z,90.64
2022-10-11T21:26:07.864Z,90.48
2022-10-11T21:28:34.374Z,90.66
2022-10-11T21:31:08.842Z,90.61
2022-10-11T21:33:36.252Z,90.19
2022-10-11T21:36:07.790Z,90.75
2022-10-11T21:38:34.726Z,90.57
2022-10-11T21:41:05.488Z,90.88
2022-10-11T21:43:31.892Z,91.14
2022-10-11T21:45:58.307Z,91.14
2022-10-11T21:48:24.696Z,91.45
2022-10-11T21:50:54.841Z,91.75
2022-10-11T21:53:21.290Z,92.00
2022-10-11T21:55:47.701Z,92.42
2022-10-11T21:58:14.102Z,92.44
2022-10-11T22:00:40.478Z,92.20
2022-10-11T22:03:06.905Z,92.94
2022-10-11T22:05:33.304Z,92.98
2022-10-11T22:07:59.703Z,93.42
2022-10-11T22:10:26.096Z,93.42
2022-10-11T22:12:52.468Z,93.60
2022-10-11T22:15:18.855Z,93.34
2022-10-11T22:17:45.370Z,93.67
2022-10-11T22:20:11.840Z,93.89
2022-10-11T22:22:38.426Z,94.12
2022-10-11T22:25:05.472Z,93.83
2022-10-11T22:27:31.846Z,93.96
2022-10-11T22:29:58.279Z,94.04
2022-10-11T22:32:24.734Z,94.14
2022-10-11T22:34:51.095Z,94.30
2022-10-11T22:37:17.466Z,94.10
2022-10-11T22:39:43.831Z,93.69
2022-10-11T22:42:10.236Z,93.82
2022-10-11T22:44:36.641Z,93.83
2022-10-11T22:47:03.182Z,94.12
2022-10-11T22:49:29.581Z,94.02
2022-10-11T22:51:55.960Z,93.97
2022-10-11T22:54:22.359Z,93.79
2022-10-11T22:56:48.727Z,93.79
2022-10-11T22:59:15.317Z,93.99
2022-10-11T23:01:41.801Z,93.96
2022-10-11T23:04:08.285Z,94.47
2022-10-11T23:06:34.733Z,94.74
2022-10-11T23:09:02.186Z,94.42
2022-10-11T23:11:28.595Z,94.67
2022-10-11T23:13:55.009Z,94.52
2022-10-11T23:16:21.411Z,94.45
2022-10-11T23:18:47.827Z,94.48
2022-10-11T23:21:14.255Z,94.78
2022-10-11T23:23:40.659Z,94.54
2022-10-11T23:26:11.056Z,94.55
2022-10-11T23:28:37.793Z,94.69
2022-10-11T23:31:16.493Z,94.59
2022-10-11T23:33:46.894Z,94.36
2022-10-11T23:36:19.495Z,94.28
2022-10-11T23:38:50.753Z,94.19
2022-10-11T23:41:17.217Z,94.51
2022-10-11T23:43:43.688Z,94.30
2022-10-11T23:46:10.059Z,94.32
2022-10-11T23:48:36.439Z,94.44
2022-10-11T23:51:02.906Z,94.26
2022-10-11T23:53:29.284Z,94.04
2022-10-11T23:55:55.756Z,93.79
2022-10-11T23:58:22.197Z,93.90
